Ana Sayfa
METAR-TAF:

METAR-TAF

Havaalanları :

Coleman, Teksas, Amerika Birleşik Devletleri

Enlem: 31-50-28N, Boylam: 099-24-12W, yükseklik: 517 m

Güncel hava durumu gözlemi

Rapor saat 20:35 UTC de 11 dakika önce yapıldı.
Rüzgar güneydan 11 kt ve 18 kt'a kadar ani rüzgarlar
Sıcaklık 35°C
Nem 32%
Basınç 1016 hPa
Görüş mesafesi: 16.1 km
6000 ft yükseklikte parçalı bulutlu

METAR: KCOM 172035Z AUTO 19011G18KT 10SM SCT060 35/16 A3001 RMK AO2 T03530164

Saat: 14:46 (20:46 UTC)


TAF: eksik

4.000'den fazla havaalanı için hava durumu gözlemleri ve tahminleri (METAR ve TAF raporları).

Kullanılabilir istasyonlar harita üzerinde sarı ve kırmızı noktalarla gösterilir.

İstasyonun adını görmek için fareyi noktanın üzerinde gezdirin.

Sonrasında hava gözlem ve tahminlerini görmek için tıklayın.

Haritayı değiştirmek için: yaklaştırmak için siyah artı işaretli yeşil düğmeye ve uzaklaştırmak için de eksi işaretli düğmeye hızla tıklayın; bitişik haritalar için yeşil okları kullanın.


METAR-TAF: